Time;durP1;ratioP1;P1;durP2;ratioP2;P2;SDS_P1;SDS_P2;PMS_P1;PMS_P2;Temp;Humidity;BMP_temperature;BMP_pressure;BME280_temperature;BME280_humidity;BME280_pressure;Samples;Min_cycle;Max_cycle;Signal;HPM_P1;HPM_P2
2024/02/05 00:01:12;;;;;;;47.92;26.88;;;10.60;99.90;;;;;;5056433;28;20029;-66
2024/02/05 00:03:37;;;;;;;38.22;25.38;;;10.60;99.90;;;;;;5056467;28;20032;-66
2024/02/05 00:06:04;;;;;;;46.05;26.55;;;10.60;99.90;;;;;;5056482;28;20386;-66
2024/02/05 00:08:30;;;;;;;42.63;25.90;;;10.60;99.90;;;;;;5056428;28;20444;-66
2024/02/05 00:10:55;;;;;;;44.97;26.13;;;10.60;99.90;;;;;;5056447;28;20025;-66
2024/02/05 00:13:23;;;;;;;45.40;27.13;;;10.60;99.90;;;;;;5056342;28;20032;-66
2024/02/05 00:15:48;;;;;;;46.38;25.92;;;10.60;99.90;;;;;;5054830;28;20491;-66
2024/02/05 00:18:14;;;;;;;42.05;25.65;;;10.60;99.90;;;;;;5056193;28;20028;-66
2024/02/05 00:20:39;;;;;;;44.75;24.52;;;10.60;99.90;;;;;;5056071;28;20076;-66
2024/02/05 00:23:05;;;;;;;41.92;24.38;;;10.60;99.90;;;;;;5056200;28;20364;-65
2024/02/05 00:25:32;;;;;;;44.58;22.85;;;10.60;99.90;;;;;;5055849;28;20368;-66
2024/02/05 00:27:57;;;;;;;35.30;23.23;;;10.60;99.90;;;;;;5056109;28;20025;-66
2024/02/05 00:30:23;;;;;;;41.28;22.42;;;10.60;99.90;;;;;;5055745;28;20025;-66
2024/02/05 00:32:49;;;;;;;43.90;21.02;;;10.60;99.90;;;;;;5055858;28;20035;-66
2024/02/05 00:35:15;;;;;;;43.20;22.77;;;10.60;99.90;;;;;;5056031;28;20042;-66
2024/02/05 00:37:40;;;;;;;42.65;22.80;;;10.60;99.90;;;;;;5055808;28;20036;-66
2024/02/05 00:40:07;;;;;;;33.30;20.00;;;10.60;99.90;;;;;;5055737;28;20108;-66
2024/02/05 00:42:33;;;;;;;38.72;20.35;;;10.60;99.90;;;;;;5055733;28;20063;-66
2024/02/05 00:44:59;;;;;;;34.78;20.52;;;10.60;99.90;;;;;;5055385;28;20079;-66
2024/02/05 00:47:26;;;;;;;34.03;18.92;;;10.60;99.90;;;;;;5054492;28;20078;-66
2024/02/05 00:49:52;;;;;;;29.63;18.25;;;10.60;99.90;;;;;;5055441;28;20021;-66
2024/02/05 00:52:17;;;;;;;32.10;18.52;;;10.60;99.90;;;;;;5055695;28;20593;-67
2024/02/05 00:54:43;;;;;;;35.47;17.70;;;10.60;99.90;;;;;;5055707;28;20023;-66
2024/02/05 00:57:08;;;;;;;30.77;16.83;;;10.60;99.90;;;;;;5055519;28;20087;-67
2024/02/05 00:59:34;;;;;;;30.38;17.25;;;10.60;99.90;;;;;;5055448;28;20150;-66
2024/02/05 01:01:59;;;;;;;31.38;16.88;;;10.60;99.90;;;;;;5055470;28;20029;-66
2024/02/05 01:04:25;;;;;;;31.60;17.27;;;10.60;99.90;;;;;;5055165;28;20029;-67
2024/02/05 01:06:53;;;;;;;31.02;16.52;;;10.60;99.90;;;;;;5055228;28;20032;-67
2024/02/05 01:09:21;;;;;;;35.28;16.85;;;10.60;99.90;;;;;;5055352;28;20538;-67
2024/02/05 01:11:47;;;;;;;30.98;16.35;;;10.60;99.90;;;;;;5055435;28;20029;-67
2024/02/05 01:14:12;;;;;;;29.27;15.65;;;10.70;99.90;;;;;;5055076;28;20032;-67
2024/02/05 01:16:38;;;;;;;37.20;14.93;;;10.70;99.90;;;;;;5055290;28;20372;-67
2024/02/05 01:19:03;;;;;;;29.98;15.68;;;10.70;99.90;;;;;;5055222;28;20039;-67
2024/02/05 01:21:29;;;;;;;29.33;14.35;;;10.80;99.90;;;;;;5054908;28;20049;-67
2024/02/05 01:23:54;;;;;;;39.42;15.77;;;10.70;99.90;;;;;;5054813;28;20021;-67
2024/02/05 01:26:21;;;;;;;33.85;16.15;;;10.80;99.90;;;;;;5054864;28;20037;-66
2024/02/05 01:28:47;;;;;;;30.20;16.25;;;10.80;99.90;;;;;;5054846;28;20033;-66
2024/02/05 01:31:12;;;;;;;37.47;16.30;;;10.60;99.90;;;;;;5054791;28;20463;-66
2024/02/05 01:33:38;;;;;;;32.90;15.45;;;10.80;99.90;;;;;;5054946;28;20079;-66
2024/02/05 01:36:04;;;;;;;30.27;14.95;;;10.60;99.90;;;;;;5054590;28;20032;-66
2024/02/05 01:38:30;;;;;;;31.00;14.90;;;10.70;99.90;;;;;;5054558;28;20053;-66
2024/02/05 01:40:55;;;;;;;37.30;16.20;;;10.60;99.90;;;;;;5054489;28;20032;-66
2024/02/05 01:43:22;;;;;;;31.30;15.60;;;;;;;;;;5054351;28;20051;-68
2024/02/05 01:45:48;;;;;;;37.42;16.38;;;10.60;99.90;;;;;;5054374;28;20036;-67
2024/02/05 01:48:18;;;;;;;33.78;14.93;;;10.40;99.90;;;;;;5054601;28;20029;-68
2024/02/05 01:50:44;;;;;;;33.08;14.65;;;10.70;99.90;;;;;;5054449;28;20028;-67
2024/02/05 01:53:10;;;;;;;39.58;15.80;;;10.50;99.90;;;;;;5054349;28;20029;-67
2024/02/05 01:55:36;;;;;;;35.13;14.30;;;10.60;99.90;;;;;;5054480;28;20059;-67
2024/02/05 01:58:02;;;;;;;46.88;15.65;;;10.60;99.90;;;;;;5054087;28;20053;-67
2024/02/05 02:00:28;;;;;;;36.35;14.18;;;10.60;99.90;;;;;;5054374;28;20534;-67
2024/02/05 02:02:55;;;;;;;30.20;13.48;;;10.70;99.90;;;;;;5054133;28;20494;-69
2024/02/05 02:05:21;;;;;;;38.67;15.40;;;10.80;99.90;;;;;;5054121;28;20422;-67
2024/02/05 02:07:48;;;;;;;30.27;13.43;;;10.70;99.90;;;;;;5053948;28;20120;-68
2024/02/05 02:10:13;;;;;;;33.65;13.27;;;10.70;99.90;;;;;;5053062;28;20100;-68
2024/02/05 02:12:39;;;;;;;37.80;13.38;;;10.80;99.90;;;;;;5054036;28;20035;-68
2024/02/05 02:15:05;;;;;;;38.80;14.05;;;10.70;99.90;;;;;;5054014;28;20025;-68
2024/02/05 02:17:35;;;;;;;29.60;12.50;;;10.70;99.90;;;;;;5054025;28;20029;-68
2024/02/05 02:20:00;;;;;;;37.72;12.80;;;10.70;99.90;;;;;;5052602;28;20079;-68
2024/02/05 02:22:51;;;;;;;29.52;11.68;;;10.70;99.90;;;;;;5053749;28;20037;-68
2024/02/05 02:25:17;;;;;;;35.55;12.55;;;10.70;99.90;;;;;;5053893;28;20037;-68
2024/02/05 02:27:45;;;;;;;32.10;12.07;;;10.70;99.90;;;;;;5052463;28;20079;-67
2024/02/05 02:30:13;;;;;;;34.50;12.18;;;10.80;99.90;;;;;;5052651;28;20025;-66
2024/02/05 02:33:10;;;;;;;29.02;11.68;;;10.70;99.90;;;;;;5053815;28;20041;-66
2024/02/05 02:35:50;;;;;;;32.90;11.52;;;10.80;99.90;;;;;;5053688;28;20020;-67
2024/02/05 02:38:20;;;;;;;30.95;10.77;;;10.80;99.90;;;;;;5053185;28;20052;-67
2024/02/05 02:40:52;;;;;;;33.00;10.77;;;10.80;99.90;;;;;;5053561;28;20427;-67
2024/02/05 02:43:21;;;;;;;37.67;11.45;;;10.80;99.90;;;;;;5053427;28;20491;-67
2024/02/05 02:45:49;;;;;;;35.10;11.02;;;10.80;99.90;;;;;;5053328;28;20029;-67
2024/02/05 02:48:15;;;;;;;33.60;10.13;;;10.80;99.90;;;;;;5053463;28;20036;-68
2024/02/05 02:50:40;;;;;;;33.85;10.63;;;10.80;99.90;;;;;;5053363;28;20475;-68
2024/02/05 02:53:07;;;;;;;39.92;11.07;;;10.80;99.90;;;;;;5053371;28;20029;-68
2024/02/05 02:55:33;;;;;;;35.70;10.52;;;10.80;99.90;;;;;;5053259;28;20039;-68
2024/02/05 02:57:58;;;;;;;35.88;10.57;;;10.80;99.90;;;;;;5053215;28;20021;-68
2024/02/05 03:00:25;;;;;;;39.97;9.93;;;10.70;99.90;;;;;;5053428;28;20032;-68
2024/02/05 03:02:50;;;;;;;35.60;10.07;;;10.80;99.90;;;;;;5053234;28;20410;-68
2024/02/05 03:05:16;;;;;;;34.53;9.13;;;10.80;99.90;;;;;;5053230;28;20038;-68
2024/02/05 03:07:42;;;;;;;34.38;9.80;;;;;;;;;;5053146;28;20090;-68
2024/02/05 03:10:08;;;;;;;36.13;10.40;;;10.80;99.90;;;;;;5052829;28;20078;-68
2024/02/05 03:12:34;;;;;;;31.40;9.73;;;10.80;99.90;;;;;;5053057;28;20024;-68
2024/02/05 03:15:00;;;;;;;36.45;9.60;;;10.80;99.90;;;;;;5053279;28;20386;-68
2024/02/05 03:17:25;;;;;;;33.95;8.85;;;10.80;99.90;;;;;;5053252;28;20032;-68
2024/02/05 03:19:51;;;;;;;31.33;9.25;;;10.80;99.90;;;;;;5053008;28;20398;-68
2024/02/05 03:22:16;;;;;;;34.95;9.57;;;10.80;99.90;;;;;;5053274;28;20043;-68
2024/02/05 03:24:42;;;;;;;37.22;9.90;;;10.80;99.90;;;;;;5053071;28;20491;-68
2024/02/05 03:27:08;;;;;;;33.33;9.00;;;10.80;99.90;;;;;;5052935;28;20391;-68
2024/02/05 03:29:33;;;;;;;33.17;9.95;;;10.80;99.90;;;;;;5052950;28;20014;-68
2024/02/05 03:32:00;;;;;;;34.03;9.45;;;10.80;99.90;;;;;;5053075;28;20112;-68
2024/02/05 03:34:26;;;;;;;33.47;9.55;;;10.80;99.90;;;;;;5052902;28;20033;-67
2024/02/05 03:36:51;;;;;;;31.67;9.02;;;10.80;99.90;;;;;;5052895;28;20040;-68
2024/02/05 03:39:17;;;;;;;36.67;10.20;;;10.80;99.90;;;;;;5052875;28;20028;-68
2024/02/05 03:41:42;;;;;;;42.00;9.30;;;10.80;99.90;;;;;;5052890;28;20033;-67
2024/02/05 03:44:08;;;;;;;36.83;9.70;;;10.80;99.90;;;;;;5052856;28;20064;-68
2024/02/05 03:46:33;;;;;;;29.30;9.00;;;10.80;99.90;;;;;;5052787;28;20025;-68
2024/02/05 03:48:59;;;;;;;30.45;9.63;;;10.70;99.90;;;;;;5052737;28;20028;-68
2024/02/05 03:51:24;;;;;;;32.65;9.05;;;10.70;99.90;;;;;;5052548;28;20025;-68
2024/02/05 03:53:50;;;;;;;30.90;9.02;;;10.70;99.90;;;;;;5052919;28;20028;-67
2024/02/05 03:56:17;;;;;;;31.92;9.38;;;10.70;99.90;;;;;;5052862;28;20021;-67
2024/02/05 03:58:44;;;;;;;32.75;9.50;;;10.70;99.90;;;;;;5052906;28;20384;-68
2024/02/05 04:01:09;;;;;;;34.20;10.50;;;;;;;;;;5052858;28;20028;-68
2024/02/05 04:03:35;;;;;;;40.25;10.10;;;11.30;99.90;;;;;;5052579;28;20505;-68
2024/02/05 04:06:00;;;;;;;39.05;9.55;;;10.80;99.90;;;;;;5052631;28;20471;-68
2024/02/05 04:08:26;;;;;;;33.72;9.48;;;10.80;99.90;;;;;;5052558;28;20033;-68
2024/02/05 04:10:52;;;;;;;29.73;8.65;;;10.80;99.90;;;;;;5052737;28;20451;-68
2024/02/05 04:13:17;;;;;;;35.85;9.90;;;10.60;99.90;;;;;;5052709;28;20094;-68
2024/02/05 04:15:43;;;;;;;31.20;9.80;;;10.70;99.90;;;;;;5052575;28;20104;-67
2024/02/05 04:18:09;;;;;;;36.97;9.85;;;10.80;99.90;;;;;;5052518;28;20098;-68
2024/02/05 04:20:35;;;;;;;35.08;9.38;;;10.80;99.90;;;;;;5052603;28;20115;-68
2024/02/05 04:23:01;;;;;;;34.95;8.80;;;10.60;99.90;;;;;;5055871;28;20043;-68
2024/02/05 04:25:26;;;;;;;41.92;9.57;;;10.60;99.90;;;;;;5055998;28;20033;-68
2024/02/05 04:27:52;;;;;;;39.95;9.93;;;10.60;99.90;;;;;;5055867;28;20066;-68
2024/02/05 04:30:26;;;;;;;36.85;9.82;;;10.60;99.90;;;;;;5056158;28;20530;-68
2024/02/05 04:32:52;;;;;;;38.58;9.85;;;10.60;99.90;;;;;;5056037;28;20025;-69
2024/02/05 04:35:18;;;;;;;32.45;10.05;;;10.60;99.90;;;;;;5055642;28;20111;-68
2024/02/05 04:37:43;;;;;;;42.28;10.55;;;10.60;99.90;;;;;;5055937;28;20128;-68
2024/02/05 04:40:09;;;;;;;37.60;10.57;;;10.60;99.90;;;;;;5055787;28;20509;-69
2024/02/05 04:42:35;;;;;;;40.65;10.63;;;10.50;99.90;;;;;;5055873;28;20029;-68
2024/02/05 04:45:00;;;;;;;36.78;10.02;;;10.60;99.90;;;;;;5055408;28;20537;-68
2024/02/05 04:47:26;;;;;;;36.10;11.57;;;10.50;99.90;;;;;;5055450;28;20024;-68
2024/02/05 04:49:52;;;;;;;36.53;10.60;;;10.50;99.90;;;;;;5055597;28;20025;-68
2024/02/05 04:52:18;;;;;;;32.17;11.48;;;10.50;99.90;;;;;;5055487;28;20025;-68
2024/02/05 04:54:44;;;;;;;36.80;10.55;;;10.50;99.90;;;;;;5055259;28;20392;-68
2024/02/05 04:57:09;;;;;;;40.17;11.60;;;10.50;99.90;;;;;;5055509;28;20025;-68
2024/02/05 04:59:35;;;;;;;42.72;12.40;;;10.50;99.90;;;;;;5055487;28;20029;-68
2024/02/05 05:02:01;;;;;;;37.20;11.25;;;10.50;99.90;;;;;;5055484;28;20029;-69
2024/02/05 05:04:26;;;;;;;33.55;10.20;;;10.50;99.90;;;;;;5055480;28;20033;-69
2024/02/05 05:06:52;;;;;;;36.83;10.55;;;10.50;99.90;;;;;;5055072;28;20146;-68
2024/02/05 05:09:17;;;;;;;42.20;11.18;;;10.50;99.90;;;;;;5055366;28;20029;-68
2024/02/05 05:11:43;;;;;;;33.70;9.50;;;10.50;99.90;;;;;;5055343;28;20035;-68
2024/02/05 05:14:08;;;;;;;33.17;9.57;;;10.50;99.90;;;;;;5055281;28;20094;-68
2024/02/05 05:16:34;;;;;;;34.67;9.80;;;10.50;99.90;;;;;;5055208;28;20029;-67
2024/02/05 05:19:01;;;;;;;46.28;11.15;;;10.50;99.90;;;;;;5054713;28;20120;-68
2024/02/05 05:21:27;;;;;;;40.63;10.48;;;10.50;99.90;;;;;;5055090;28;20111;-67
2024/02/05 05:23:52;;;;;;;40.35;12.18;;;10.40;99.90;;;;;;5055064;28;20087;-67
2024/02/05 05:26:21;;;;;;;36.03;11.63;;;10.40;99.90;;;;;;5054754;28;20032;-67
2024/02/05 05:28:48;;;;;;;38.28;10.73;;;10.40;99.90;;;;;;5055015;28;20095;-67
2024/02/05 05:31:16;;;;;;;40.75;10.50;;;10.40;99.90;;;;;;5054873;28;20386;-67
2024/02/05 05:33:43;;;;;;;41.80;11.65;;;10.40;99.90;;;;;;5054220;28;20112;-67
2024/02/05 05:36:08;;;;;;;35.90;11.38;;;10.40;99.90;;;;;;5054452;28;20028;-67
2024/02/05 05:38:34;;;;;;;33.55;11.73;;;10.40;99.90;;;;;;5054767;28;20021;-67
2024/02/05 05:40:59;;;;;;;39.35;12.88;;;10.40;99.90;;;;;;5054377;28;20483;-67
2024/02/05 05:43:25;;;;;;;43.58;11.75;;;10.40;99.90;;;;;;5054302;28;20042;-67
2024/02/05 05:45:51;;;;;;;40.90;12.43;;;10.40;99.90;;;;;;5054637;28;20036;-67
2024/02/05 05:48:16;;;;;;;36.53;11.73;;;10.40;99.90;;;;;;5054435;28;20029;-68
2024/02/05 05:50:42;;;;;;;42.50;13.50;;;10.40;99.90;;;;;;5054417;28;20021;-68
2024/02/05 05:53:08;;;;;;;35.70;13.82;;;10.40;99.90;;;;;;5054460;28;20056;-68
2024/02/05 05:55:33;;;;;;;45.90;13.32;;;10.40;99.90;;;;;;5054331;28;20029;-68
2024/02/05 05:57:59;;;;;;;44.65;14.27;;;10.40;99.90;;;;;;5054187;28;20414;-68
2024/02/05 06:00:24;;;;;;;38.08;13.38;;;10.30;99.90;;;;;;5054231;28;20090;-68
2024/02/05 06:02:50;;;;;;;47.88;13.18;;;10.30;99.90;;;;;;5054139;28;20032;-67
2024/02/05 06:05:15;;;;;;;35.35;13.50;;;10.30;99.90;;;;;;5054298;28;20534;-68
2024/02/05 06:07:41;;;;;;;34.22;12.93;;;10.30;99.90;;;;;;5054052;28;20029;-67
2024/02/05 06:10:09;;;;;;;38.30;12.65;;;10.30;99.90;;;;;;5054218;28;20029;-63
2024/02/05 06:12:34;;;;;;;41.95;13.90;;;10.30;99.90;;;;;;5053916;28;20020;-63
2024/02/05 06:15:00;;;;;;;38.72;13.20;;;10.40;99.90;;;;;;5054071;28;20039;-63
2024/02/05 06:17:25;;;;;;;39.33;13.82;;;10.30;99.90;;;;;;5053681;28;20120;-63
2024/02/05 06:19:51;;;;;;;45.85;14.98;;;10.30;99.90;;;;;;5053863;28;20109;-63
2024/02/05 06:22:16;;;;;;;41.45;14.93;;;10.30;99.90;;;;;;5054077;28;20536;-63
2024/02/05 06:24:42;;;;;;;34.55;13.60;;;10.30;99.90;;;;;;5054039;28;20100;-63
2024/02/05 06:27:07;;;;;;;39.53;14.20;;;10.30;99.90;;;;;;5053456;28;20033;-62
2024/02/05 06:29:34;;;;;;;44.83;13.27;;;10.30;99.90;;;;;;5053780;28;20033;-63
2024/02/05 06:32:00;;;;;;;39.55;14.07;;;10.30;99.90;;;;;;5053844;28;20017;-63
2024/02/05 06:34:25;;;;;;;39.22;13.63;;;10.30;99.90;;;;;;5053811;28;20032;-63
2024/02/05 06:36:51;;;;;;;35.47;13.77;;;10.30;99.90;;;;;;5053703;28;20047;-63
2024/02/05 06:39:16;;;;;;;43.33;14.50;;;10.30;99.90;;;;;;5053720;28;20084;-62
2024/02/05 06:41:42;;;;;;;33.95;13.50;;;10.20;99.90;;;;;;5052166;28;20021;-63
2024/02/05 06:44:07;;;;;;;35.60;13.57;;;10.20;99.90;;;;;;5052489;28;20092;-63
2024/02/05 06:46:33;;;;;;;42.75;14.18;;;10.30;99.90;;;;;;5053267;28;20025;-62
2024/02/05 06:48:58;;;;;;;49.60;14.60;;;10.30;99.90;;;;;;5053217;28;20020;-62
2024/02/05 06:51:24;;;;;;;38.35;13.57;;;10.30;99.90;;;;;;5053318;28;20021;-62
2024/02/05 06:53:50;;;;;;;40.17;14.38;;;10.30;99.90;;;;;;5052963;28;20395;-63
2024/02/05 06:56:15;;;;;;;31.85;13.00;;;10.30;99.90;;;;;;5053107;28;20029;-62
2024/02/05 06:58:41;;;;;;;36.83;12.82;;;10.30;99.90;;;;;;5053143;28;20033;-62
2024/02/05 07:01:07;;;;;;;38.75;13.18;;;10.30;99.90;;;;;;5052916;28;20039;-63
2024/02/05 07:03:32;;;;;;;45.33;15.68;;;10.30;99.90;;;;;;5053173;28;20112;-63
2024/02/05 07:05:58;;;;;;;40.20;15.10;;;10.30;99.90;;;;;;5052784;28;20037;-63
2024/02/05 07:08:24;;;;;;;41.50;15.65;;;10.20;99.90;;;;;;5052723;28;20489;-63
2024/02/05 07:10:49;;;;;;;42.83;15.50;;;10.30;99.90;;;;;;5052198;28;20055;-63
2024/02/05 07:13:15;;;;;;;39.30;14.90;;;10.30;99.90;;;;;;5052753;28;20382;-63
2024/02/05 07:15:40;;;;;;;36.90;15.10;;;10.30;99.90;;;;;;5052772;28;20518;-63
2024/02/05 07:18:06;;;;;;;37.85;15.55;;;10.30;99.90;;;;;;5052361;28;20036;-62
2024/02/05 07:20:32;;;;;;;42.97;15.73;;;10.30;99.90;;;;;;5052796;28;20029;-62
2024/02/05 07:22:57;;;;;;;34.75;15.23;;;10.30;99.90;;;;;;5052959;28;20497;-62
2024/02/05 07:25:25;;;;;;;34.53;15.73;;;10.20;99.90;;;;;;5053013;28;20058;-62
2024/02/05 07:27:50;;;;;;;41.53;16.20;;;10.30;97.60;;;;;;5052823;28;20024;-62
2024/02/05 07:30:16;;;;;;;39.33;16.48;;;10.30;98.20;;;;;;5053070;28;20033;-63
2024/02/05 07:32:42;;;;;;;42.20;16.70;;;10.30;99.90;;;;;;5052959;28;20116;-65
2024/02/05 07:35:08;;;;;;;47.80;17.60;;;10.20;98.60;;;;;;5052781;28;20025;-62
2024/02/05 07:37:33;;;;;;;42.50;17.50;;;10.30;99.90;;;;;;5052829;28;20394;-62
2024/02/05 07:40:03;;;;;;;41.50;18.38;;;10.20;96.80;;;;;;5052940;28;20068;-62
2024/02/05 07:42:29;;;;;;;43.45;15.98;;;10.20;97.80;;;;;;5051631;28;20519;-62
2024/02/05 07:44:54;;;;;;;44.03;16.67;;;10.30;93.30;;;;;;5049843;28;20101;-62
2024/02/05 07:47:20;;;;;;;41.15;15.43;;;10.20;94.70;;;;;;5051177;28;20359;-62
2024/02/05 07:49:46;;;;;;;40.75;16.25;;;10.20;80.30;;;;;;5051044;28;20021;-63
2024/02/05 07:52:12;;;;;;;37.33;15.45;;;10.30;74.60;;;;;;5050100;28;20498;-63
2024/02/05 07:54:39;;;;;;;42.00;14.10;;;10.30;72.90;;;;;;5051082;28;20021;-62
2024/02/05 07:57:04;;;;;;;38.42;13.40;;;10.30;66.20;;;;;;5054611;28;20025;-62
2024/02/05 07:59:30;;;;;;;37.60;13.70;;;10.30;62.40;;;;;;5054884;28;20474;-62
2024/02/05 08:01:56;;;;;;;34.47;13.63;;;10.30;63.20;;;;;;5055476;28;20036;-62
2024/02/05 08:04:21;;;;;;;37.00;13.60;;;10.30;63.00;;;;;;5052214;28;20043;-63
2024/02/05 08:06:47;;;;;;;39.45;11.82;;;10.30;56.50;;;;;;5052581;28;20044;-64
2024/02/05 08:09:13;;;;;;;33.85;13.13;;;10.30;55.70;;;;;;5051575;28;20084;-64
2024/02/05 08:11:40;;;;;;;28.17;12.15;;;10.30;60.30;;;;;;5052158;28;20033;-63
2024/02/05 08:14:06;;;;;;;35.95;12.73;;;10.30;59.00;;;;;;5052071;28;20037;-62
2024/02/05 08:16:32;;;;;;;40.33;13.35;;;10.30;54.10;;;;;;5051899;28;20489;-63
2024/02/05 08:18:58;;;;;;;39.47;14.25;;;10.30;53.10;;;;;;5052554;28;20028;-62
2024/02/05 08:21:24;;;;;;;40.50;14.40;;;10.30;57.30;;;;;;5052014;28;20391;-63
2024/02/05 08:23:51;;;;;;;42.03;13.95;;;10.30;52.10;;;;;;5054117;28;20033;-62
2024/02/05 08:26:17;;;;;;;39.63;13.50;;;10.40;52.80;;;;;;5058646;28;20399;-63
2024/02/05 08:28:43;;;;;;;41.55;14.13;;;10.30;50.90;;;;;;5058086;28;20496;-63
2024/02/05 08:31:09;;;;;;;38.85;12.70;;;10.40;51.40;;;;;;5064051;28;20023;-64
2024/02/05 08:33:35;;;;;;;29.50;11.45;;;10.40;48.60;;;;;;5052873;28;20375;-63
2024/02/05 08:36:01;;;;;;;32.17;13.95;;;10.40;49.90;;;;;;5051089;28;20039;-63
2024/02/05 08:38:27;;;;;;;42.35;11.85;;;10.30;47.90;;;;;;5051327;28;20071;-63
2024/02/05 08:40:52;;;;;;;36.72;13.52;;;10.40;43.80;;;;;;5051053;28;20108;-63
2024/02/05 08:43:18;;;;;;;38.75;12.32;;;10.40;40.50;;;;;;5050713;28;20052;-63
2024/02/05 08:45:43;;;;;;;30.70;12.32;;;10.40;38.60;;;;;;5051691;28;20029;-62
2024/02/05 08:48:09;;;;;;;35.53;14.27;;;10.40;49.20;;;;;;5051338;28;20029;-63
2024/02/05 08:50:35;;;;;;;33.72;15.20;;;10.30;50.90;;;;;;5050915;28;20376;-64
2024/02/05 08:53:02;;;;;;;42.22;15.27;;;10.30;48.40;;;;;;5054452;28;20056;-64
2024/02/05 08:55:27;;;;;;;48.55;15.02;;;10.30;47.50;;;;;;5051396;28;20658;-63
2024/02/05 08:57:53;;;;;;;35.58;13.93;;;10.30;52.60;;;;;;5051185;28;20032;-64
2024/02/05 09:00:19;;;;;;;35.30;13.77;;;10.30;53.70;;;;;;5053326;28;20120;-63
2024/02/05 09:02:45;;;;;;;45.55;13.48;;;10.30;51.10;;;;;;5053280;28;20070;-62
2024/02/05 09:05:11;;;;;;;44.47;11.88;;;10.30;44.10;;;;;;5054407;28;20035;-63
2024/02/05 09:07:38;;;;;;;40.30;12.85;;;10.30;34.30;;;;;;5054228;28;20037;-63
2024/02/05 09:10:03;;;;;;;38.97;11.98;;;10.40;31.40;;;;;;5055127;28;20068;-62
2024/02/05 09:12:29;;;;;;;26.20;10.18;;;10.40;23.80;;;;;;5054532;28;20444;-63
2024/02/05 09:14:55;;;;;;;36.25;11.02;;;10.50;8.20;;;;;;5054993;28;20033;-63
2024/02/05 09:17:20;;;;;;;36.40;10.25;;;10.50;8.00;;;;;;5054713;28;20029;-62
2024/02/05 09:19:46;;;;;;;36.60;10.43;;;10.50;11.10;;;;;;5069733;28;20035;-63
2024/02/05 09:22:12;;;;;;;42.03;11.98;;;10.50;11.40;;;;;;5055588;28;20087;-63
2024/02/05 09:24:38;;;;;;;33.88;11.35;;;10.50;20.20;;;;;;5054277;28;20025;-63
2024/02/05 09:27:05;;;;;;;37.00;12.63;;;10.40;20.40;;;;;;5054542;28;20021;-63
2024/02/05 09:29:31;;;;;;;38.50;12.57;;;10.50;20.60;;;;;;5058955;28;20108;-63
2024/02/05 09:31:57;;;;;;;40.35;14.48;;;10.50;21.10;;;;;;5054535;28;20107;-63
2024/02/05 09:34:22;;;;;;;38.03;13.50;;;10.50;29.00;;;;;;5053639;28;20029;-63
2024/02/05 09:36:48;;;;;;;40.20;14.02;;;10.50;35.20;;;;;;5054619;28;20024;-63
2024/02/05 09:39:14;;;;;;;38.30;15.73;;;10.50;31.80;;;;;;5064095;28;20027;-63
2024/02/05 09:41:40;;;;;;;44.33;14.73;;;10.60;31.00;;;;;;5055716;28;20505;-65
2024/02/05 09:44:06;;;;;;;41.72;13.65;;;10.60;39.80;;;;;;5053787;28;20049;-63
2024/02/05 09:46:33;;;;;;;33.85;14.05;;;10.60;32.00;;;;;;5053913;28;20344;-63
2024/02/05 09:49:01;;;;;;;35.55;15.52;;;10.70;35.80;;;;;;5059031;28;20031;-63
2024/02/05 09:51:29;;;;;;;40.70;15.23;;;10.70;28.10;;;;;;5054148;28;20170;-63
2024/02/05 09:53:56;;;;;;;44.65;15.25;;;10.70;32.80;;;;;;5056518;28;20025;-63
2024/02/05 09:56:25;;;;;;;47.72;14.32;;;10.70;19.80;;;;;;5053726;28;20040;-63
2024/02/05 09:58:51;;;;;;;46.22;14.98;;;10.70;21.60;;;;;;5052686;28;20060;-63
2024/02/05 10:01:18;;;;;;;44.83;14.68;;;10.70;23.80;;;;;;5053459;28;20033;-64
2024/02/05 10:03:45;;;;;;;39.80;14.73;;;10.70;30.20;;;;;;5052319;28;20057;-63
2024/02/05 10:06:17;;;;;;;39.05;15.32;;;10.70;30.20;;;;;;5058492;28;20498;-63
2024/02/05 10:08:43;;;;;;;39.85;15.73;;;10.70;22.90;;;;;;5053745;28;20021;-63
2024/02/05 10:11:11;;;;;;;41.67;15.45;;;10.80;22.50;;;;;;5053023;28;20040;-63
2024/02/05 10:13:37;;;;;;;42.92;14.43;;;10.70;22.10;;;;;;5053821;28;20036;-63
2024/02/05 10:16:03;;;;;;;40.90;15.25;;;10.80;24.40;;;;;;5054037;28;20029;-63
2024/02/05 10:18:29;;;;;;;40.00;15.05;;;11.00;19.30;;;;;;5060175;28;20471;-63
2024/02/05 10:20:55;;;;;;;46.08;14.32;;;11.00;9.70;;;;;;5053553;28;20083;-63
2024/02/05 10:23:20;;;;;;;39.28;15.88;;;11.10;15.30;;;;;;5054206;28;20040;-64
2024/02/05 10:25:46;;;;;;;42.10;13.85;;;11.20;2.00;;;;;;5068093;28;20020;-64
2024/02/05 10:28:11;;;;;;;42.78;13.93;;;11.20;1.00;;;;;;5053760;28;20035;-63
2024/02/05 10:30:37;;;;;;;32.05;14.02;;;11.10;3.40;;;;;;5060935;28;20033;-63
2024/02/05 10:33:03;;;;;;;41.13;13.70;;;11.10;10.60;;;;;;5057095;28;20036;-63
2024/02/05 10:35:29;;;;;;;39.20;16.00;;;11.30;1.00;;;;;;5052738;28;20040;-66
2024/02/05 10:38:10;;;;;;;42.78;14.30;;;11.40;1.00;;;;;;5052671;28;20024;-63
2024/02/05 10:40:37;;;;;;;43.42;14.30;;;11.30;1.00;;;;;;5048625;28;20063;-63
2024/02/05 10:43:04;;;;;;;33.70;12.77;;;11.20;1.00;;;;;;5052329;28;20028;-63
2024/02/05 10:45:34;;;;;;;38.42;13.85;;;11.20;1.00;;;;;;5052015;28;20033;-63
2024/02/05 10:48:01;;;;;;;40.38;13.20;;;11.20;1.00;;;;;;5055038;28;20037;-63
2024/02/05 10:50:27;;;;;;;30.75;13.15;;;11.20;1.00;;;;;;5053425;28;20464;-62
2024/02/05 10:52:54;;;;;;;38.20;14.60;;;11.00;1.00;;;;;;5053027;28;20025;-63
2024/02/05 10:55:20;;;;;;;33.97;13.32;;;10.90;1.00;;;;;;5053015;28;20360;-62
2024/02/05 10:57:49;;;;;;;37.47;14.18;;;10.90;1.00;;;;;;5055867;28;20021;-63
2024/02/05 11:00:17;;;;;;;36.28;13.85;;;11.00;1.00;;;;;;5052570;28;20033;-62
2024/02/05 11:02:49;;;;;;;32.25;13.05;;;11.10;1.00;;;;;;5052570;28;20478;-63
2024/02/05 11:05:15;;;;;;;38.67;12.45;;;11.40;1.00;;;;;;5053239;28;20442;-63
2024/02/05 11:07:53;;;;;;;34.78;13.45;;;11.60;1.00;;;;;;5052956;28;20434;-63
2024/02/05 11:10:22;;;;;;;39.85;13.90;;;;;;;;;;5051422;28;20079;-62
2024/02/05 11:12:54;;;;;;;37.17;14.00;;;11.20;1.00;;;;;;5049179;28;20503;-63
2024/02/05 11:15:22;;;;;;;43.85;14.70;;;11.10;1.00;;;;;;5051982;28;20083;-62
2024/02/05 11:17:50;;;;;;;35.42;13.85;;;11.10;1.00;;;;;;5052909;28;20036;-63
2024/02/05 11:20:16;;;;;;;31.75;12.80;;;11.10;1.00;;;;;;5052845;28;20383;-62
2024/02/05 11:22:43;;;;;;;38.50;12.80;;;11.20;1.00;;;;;;5052814;28;20024;-63
2024/02/05 11:25:09;;;;;;;32.40;11.43;;;11.20;1.00;;;;;;5052602;28;20083;-63
2024/02/05 11:27:35;;;;;;;36.92;12.40;;;11.30;1.00;;;;;;5052681;28;20445;-63
2024/02/05 11:30:03;;;;;;;36.85;11.68;;;11.20;1.00;;;;;;5053170;28;20032;-62
2024/02/05 11:32:33;;;;;;;28.65;12.43;;;11.20;1.00;;;;;;5055367;28;20032;-63
2024/02/05 11:34:58;;;;;;;34.30;12.68;;;11.40;1.00;;;;;;5054109;28;20060;-63
2024/02/05 11:37:24;;;;;;;34.75;12.10;;;11.40;1.00;;;;;;5054827;28;20068;-62
2024/02/05 11:39:51;;;;;;;35.33;10.45;;;11.60;1.00;;;;;;5056607;28;20021;-63
2024/02/05 11:42:18;;;;;;;29.77;9.90;;;11.70;1.00;;;;;;5056573;28;20029;-66
2024/02/05 11:44:46;;;;;;;36.63;10.70;;;11.60;1.00;;;;;;5054533;28;20426;-63
2024/02/05 11:47:12;;;;;;;33.17;11.13;;;11.50;1.00;;;;;;5056414;28;20049;-62
2024/02/05 11:49:37;;;;;;;32.30;11.55;;;11.50;1.00;;;;;;5056333;28;20032;-63
2024/02/05 11:52:03;;;;;;;36.38;10.48;;;11.50;1.00;;;;;;5056531;28;20032;-62
2024/02/05 11:54:30;;;;;;;36.20;10.23;;;11.50;1.00;;;;;;5055556;28;20083;-62
2024/02/05 11:56:56;;;;;;;39.58;10.00;;;11.40;1.00;;;;;;5056811;28;20482;-62
2024/02/05 11:59:22;;;;;;;28.25;10.02;;;11.50;1.00;;;;;;5056101;28;20025;-63
2024/02/05 12:01:50;;;;;;;32.80;9.25;;;11.30;1.00;;;;;;5056162;28;20055;-62
2024/02/05 12:04:17;;;;;;;32.13;9.90;;;11.40;1.00;;;;;;5070031;28;20120;-62
2024/02/05 12:06:43;;;;;;;29.10;10.20;;;11.40;1.00;;;;;;5056358;28;20029;-62
2024/02/05 12:09:12;;;;;;;37.75;10.90;;;11.60;1.00;;;;;;5056671;28;20347;-63
2024/02/05 12:11:39;;;;;;;41.60;11.32;;;11.40;1.00;;;;;;5055546;28;20510;-62
2024/02/05 12:14:06;;;;;;;25.35;10.45;;;11.60;1.00;;;;;;5056332;28;20387;-62
2024/02/05 12:16:32;;;;;;;34.40;11.23;;;11.50;1.00;;;;;;5056322;28;20398;-62
2024/02/05 12:18:58;;;;;;;29.58;10.25;;;11.50;1.00;;;;;;5055952;28;20120;-63
2024/02/05 12:21:25;;;;;;;35.15;12.80;;;11.60;1.00;;;;;;5060350;28;20502;-64
2024/02/05 12:23:51;;;;;;;26.55;11.50;;;11.40;1.00;;;;;;5054660;28;20029;-62
2024/02/05 12:26:18;;;;;;;28.88;11.80;;;11.30;1.00;;;;;;5055260;28;20071;-62